Orbital elements of IRIDIUM 33 DEB
| Launched | 13 September 1997 |
| Flight ended | – |
| Launch site | Tyuratam Missile and Space Center, Kazakhstan (Also known as Baikonur Cosmodrome) |
| Owner | United States |
| NORAD ID | 35918 |
| Date fetched |
Epoch osculation |
Inc. [°] |
Ecc. | RA asc node [hr] |
Arg Peri. [°] |
Mean anom [°] |
Mean motion [rev/day] |
Abs. mag |
| Date fetched |
Epoch osculation |
Inc. [°] |
Ecc. | RA asc node [hr] |
Arg Peri. [°] |
Mean anom [°] |
Mean motion [rev/day] |
Abs. mag |
| 2026 May 06 17:57 | 2026 May 05 00:25:28 | 86.4045 | 0.00282 | 0.9501 | 53.3244 | 11.8650 | 14.52506 | – |
| 2026 May 05 17:57 | 2026 May 05 00:25:28 | 86.4045 | 0.00282 | 0.9501 | 53.3244 | 11.8650 | 14.52506 | – |
| 2026 May 04 17:57 | 2026 Apr 29 23:30:29 | 86.4048 | 0.00283 | 1.0943 | 68.5418 | 11.8650 | 14.52506 | – |
| 2026 May 03 17:57 | 2026 Apr 29 23:30:29 | 86.4048 | 0.00283 | 1.0943 | 68.5418 | 11.8650 | 14.52506 | – |
| 2026 May 02 17:57 | 2026 Apr 29 23:30:29 | 86.4048 | 0.00283 | 1.0943 | 68.5418 | 11.8650 | 14.52506 | – |
| 2026 May 01 17:56 | 2026 Apr 29 23:30:29 | 86.4048 | 0.00283 | 1.0943 | 68.5418 | 11.8650 | 14.52506 | – |
| 2026 Apr 30 17:56 | 2026 Apr 29 23:30:29 | 86.4048 | 0.00283 | 1.0943 | 68.5418 | 11.8650 | 14.52506 | – |
| 2026 Apr 29 17:57 | 2026 Apr 23 00:29:42 | 86.4045 | 0.00285 | 1.2936 | 89.8196 | 11.8650 | 14.52506 | – |
| 2026 Apr 28 17:56 | 2026 Apr 23 00:29:42 | 86.4045 | 0.00285 | 1.2936 | 89.8196 | 11.8650 | 14.52506 | – |
| 2026 Apr 27 17:58 | 2026 Apr 23 00:29:42 | 86.4045 | 0.00285 | 1.2936 | 89.8196 | 11.8650 | 14.52506 | – |
| 2026 Apr 26 17:58 | 2026 Apr 23 00:29:42 | 86.4045 | 0.00285 | 1.2936 | 89.8196 | 11.8650 | 14.52506 | – |
| 2026 Apr 25 17:58 | 2026 Apr 23 00:29:42 | 86.4045 | 0.00285 | 1.2936 | 89.8196 | 11.8650 | 14.52506 | – |
| 2026 Apr 24 17:59 | 2026 Apr 23 00:29:42 | 86.4045 | 0.00285 | 1.2936 | 89.8196 | 11.8650 | 14.52506 | – |
| 2026 Apr 23 17:57 | 2026 Apr 19 00:36:36 | 86.4044 | 0.00283 | 1.4080 | 101.9910 | 11.8650 | 14.52506 | – |
| 2026 Apr 22 17:57 | 2026 Apr 19 00:36:36 | 86.4044 | 0.00283 | 1.4080 | 101.9910 | 11.8650 | 14.52506 | – |
| 2026 Apr 21 17:57 | 2026 Apr 19 00:36:36 | 86.4044 | 0.00283 | 1.4080 | 101.9910 | 11.8650 | 14.52506 | – |
| 2026 Apr 20 17:57 | 2026 Apr 19 00:36:36 | 86.4044 | 0.00283 | 1.4080 | 101.9910 | 11.8650 | 14.52506 | – |
| 2026 Apr 19 17:58 | 2026 Apr 19 00:36:36 | 86.4044 | 0.00283 | 1.4080 | 101.9910 | 11.8650 | 14.52506 | – |
| 2026 Apr 18 17:56 | 2026 Apr 09 13:09:40 | 86.4044 | 0.00271 | 1.6795 | 131.8945 | 11.8650 | 14.52506 | – |
| 2026 Apr 16 17:57 | 2026 Apr 09 13:09:40 | 86.4044 | 0.00271 | 1.6795 | 131.8945 | 11.8650 | 14.52506 | – |
| 2026 Apr 14 17:57 | 2026 Apr 09 13:09:40 | 86.4044 | 0.00271 | 1.6795 | 131.8945 | 11.8650 | 14.52506 | – |
| 2026 Apr 13 17:57 | 2026 Apr 09 13:09:40 | 86.4044 | 0.00271 | 1.6795 | 131.8945 | 11.8650 | 14.52506 | – |
| 2026 Apr 12 17:57 | 2026 Apr 08 01:41:58 | 86.4052 | 0.00268 | 1.7218 | 136.8467 | 11.8650 | 14.52506 | – |
| 2026 Apr 11 17:57 | 2026 Apr 08 01:41:58 | 86.4052 | 0.00268 | 1.7218 | 136.8467 | 11.8650 | 14.52506 | – |
| 2026 Apr 10 17:58 | 2026 Apr 08 01:41:58 | 86.4052 | 0.00268 | 1.7218 | 136.8467 | 11.8650 | 14.52506 | – |
| 2026 Apr 09 18:01 | 2026 Apr 08 01:41:58 | 86.4052 | 0.00268 | 1.7218 | 136.8467 | 11.8650 | 14.52506 | – |